Aeroporto :
LOGIN :

Iscrizione | Disclaimer

   EN    FR    IT 

 










Sommario :    VFR   VFR Marginale   IFR   IFR Intensivo   IFR Molto Intensivo
Visibilità : 
Base nubi : 
>= 8 km
>= 3000ft
5 / 8 km
1000 / 3000 ft
1500m / 5 km
500 / 1000 ft
800 / 1500m
200 / 500 ft
< 800m
< 200 ft
Simboli :   Temporali  Nebbia  Neve Forte  Precipitazioni Forti  Vento > 20 kt
SIGMETs :   Varie  Temporali  Ghiacco  Turbolenza  Onda orograficha  Ceneri Vulcaniche






- Altitudine del aeroporto : 526 ft
- Codice IATA : LTN


EGGW - London Luton

ULTIMO METAR :
  • 061850Z AUTO 22004KT 9999 NCD 27/16 Q1017

METARs OBSOLETI :
  • 061820Z AUTO 21004KT 150V240 9999 SCT048 27/16 Q1017
  • 061750Z AUTO 20004KT 130V250 9999 BKN042 28/16 Q1017
  • 061720Z AUTO 14005KT 080V230 9999 SCT040 27/17 Q1017
  • 061650Z AUTO 13005KT 100V170 9999 BKN038 27/16 Q1017

TAF TAF EGGW
Valido dal 06 a 18 ore il 07 a 18 ore UTC


061701Z 0618/0718 VRB05KT 9999 FEW035
PROB40 0702/0707 6000
BECMG 0712/0715 20010KT
ATIS : +44 1582 395 204



MetMap, La meteo Aeronautica in un colpo d'occhio ! - Copyright ORBIFLY Dicembre 2007 - Disclaimer

ORBIFLY MET'MAP TEAM :

Programmazione e sviluppo : Alexandra Zaïnal
Concezione : Baudouin d'Aumeries
Aiuto per la programmazione : Marc-Olivier Méhu
Supporto tecnico e logistico : Manuel Goepfert
Aiuto per la traduzione : Arnaldo La Scala

Contatto : metmap@orbifly.com




FONTI E CREDITI :

   NOAA